Milford Center, Ohio
Current Conditions -  °F | °C
As of 7:13 AM on Monday 20 Oct 2014 (Local Time) from KMRT Reporting Station
Overcast Overcast  
Wind Chill: 41°   Ceiling: 11000
Heat Index: 45°   Visibility: 10mi
Dew Point: 39°   Wind: 7mph
Humidity: 80%   Direction: 220°SW
Pressure: 29.98"   Gusts: NA
Location:  40.18°N, 83.44°W
Report Text: KMRT 201113Z AUTO 22006KT 10SM OVC110 07/04 A2998 RMK AO2 T00730040
Loading
Personal Weather Stations






























Interactive Weather Map
Tropical Storm Tracking
New forecast layout! Learn more

10-Day Weather Forecast

Advertisements
Track Severe Weather on mobile